createdAt,value
2019-04-22T00:00:32.741Z,30.700001
2019-04-22T00:01:31.111Z,29.4
2019-04-22T00:02:28.449Z,31.200001
2019-04-22T00:03:33.802Z,28.799999
2019-04-22T00:04:39.157Z,28.4
2019-04-22T00:05:48.222Z,29.9
2019-04-22T00:06:49.558Z,30.200001
2019-04-22T00:07:41.717Z,29.799999
2019-04-22T00:08:55.183Z,31
2019-04-22T00:09:51.344Z,30.5
2019-04-22T00:10:53.825Z,33.900002
2019-04-22T00:11:52.746Z,32.299999
2019-04-22T00:12:52.722Z,31.299999
2019-04-22T00:13:51.753Z,30.299999
2019-04-22T00:14:46.162Z,34.299999
2019-04-22T00:15:47.069Z,34.799999
2019-04-22T00:16:51.350Z,32.700001
2019-04-22T00:17:59.806Z,32.099998
2019-04-22T00:19:14.978Z,32.5
2019-04-22T00:19:57.405Z,34.400002
2019-04-22T00:20:49.970Z,30.1
2019-04-22T00:21:54.952Z,31.1
2019-04-22T00:22:50.364Z,31.6
2019-04-22T00:23:51.169Z,33.900002
2019-04-22T00:24:49.825Z,31
2019-04-22T00:25:55.165Z,30.9
2019-04-22T00:26:55.797Z,32.200001
2019-04-22T00:27:54.785Z,32.599998
2019-04-22T00:28:57.864Z,31.4
2019-04-22T00:30:12.826Z,32.799999
2019-04-22T00:30:53.584Z,33.299999
2019-04-22T00:31:52.602Z,34
2019-04-22T00:32:49.071Z,33.400002
2019-04-22T00:33:51.550Z,31.700001
2019-04-22T00:34:53.159Z,34.700001
2019-04-22T00:35:47.950Z,30.700001
2019-04-22T00:36:54.120Z,31.9
2019-04-22T00:37:56.551Z,31.700001
2019-04-22T00:38:51.259Z,32.400002
2019-04-22T00:39:51.128Z,34.799999
2019-04-22T00:40:50.490Z,31.6
2019-04-22T00:41:55.070Z,33.099998
2019-04-22T00:42:52.850Z,32
2019-04-22T00:43:56.435Z,34.799999
2019-04-22T00:44:51.238Z,31.4
2019-04-22T00:45:47.689Z,30.5
2019-04-22T00:46:52.060Z,29.200001
2019-04-22T00:47:50.106Z,29.700001
2019-04-22T00:49:11.638Z,29.1
2019-04-22T00:51:01.141Z,30.200001
2019-04-22T00:51:56.735Z,31.6
2019-04-22T00:52:54.477Z,31.299999
2019-04-22T00:53:54.135Z,28.700001
2019-04-22T00:54:58.718Z,31.200001
2019-04-22T00:55:53.701Z,29.700001
2019-04-22T00:56:53.813Z,29.5
2019-04-22T00:57:54.033Z,30.9
2019-04-22T00:58:49.785Z,29.6
2019-04-22T00:59:51.914Z,32
2019-04-22T01:00:54.041Z,31.299999
2019-04-22T01:01:52.044Z,29.700001
2019-04-22T01:02:53.903Z,27.5
2019-04-22T01:04:03.539Z,30.299999
2019-04-22T01:04:53.398Z,30.9
2019-04-22T01:05:54.792Z,32.5
2019-04-22T01:06:51.061Z,30.799999
2019-04-22T01:07:56.194Z,30.799999
2019-04-22T01:08:57.631Z,32.900002
2019-04-22T01:09:58.330Z,30.700001
2019-04-22T01:10:51.983Z,31.4
2019-04-22T01:11:52.221Z,31.299999
2019-04-22T01:12:49.559Z,30.5
2019-04-22T01:13:55.091Z,34.099998
2019-04-22T01:14:53.645Z,29.799999
2019-04-22T01:15:57.017Z,30.700001
2019-04-22T01:16:53.589Z,31
2019-04-22T01:17:50.625Z,32.799999
2019-04-22T01:18:53.400Z,28.1
2019-04-22T01:19:55.840Z,29.200001
2019-04-22T01:21:05.421Z,29.200001
2019-04-22T01:21:49.572Z,26.6
2019-04-22T01:22:51.733Z,27.9
2019-04-22T01:23:51.741Z,29.9
2019-04-22T01:24:49.962Z,28
2019-04-22T01:25:44.747Z,29.1
2019-04-22T01:26:43.257Z,29.799999
2019-04-22T01:27:44.487Z,27.1
2019-04-22T01:28:42.129Z,28.799999
2019-04-22T01:29:40.887Z,28.200001
2019-04-22T01:30:40.448Z,28.9
2019-04-22T01:31:32.839Z,29.200001
2019-04-22T01:32:34.893Z,29.6
2019-04-22T01:33:35.081Z,28
2019-04-22T01:34:45.546Z,26.1
2019-04-22T01:35:43.255Z,25.299999
2019-04-22T01:36:47.249Z,27.299999
2019-04-22T01:37:48.152Z,25.200001
2019-04-22T01:38:45.124Z,26.200001
2019-04-22T01:39:56.740Z,26
2019-04-22T01:40:59.588Z,25.9
2019-04-22T01:41:59.588Z,28.5
2019-04-22T01:43:01.655Z,25.1
2019-04-22T01:44:14.145Z,26.299999
2019-04-22T01:44:50.321Z,29.5
2019-04-22T01:45:52.821Z,27.700001
2019-04-22T01:46:56.378Z,25.4
2019-04-22T01:47:54.759Z,24
2019-04-22T01:48:54.153Z,27.799999
2019-04-22T01:49:52.227Z,28.9
2019-04-22T01:51:58.227Z,29.1
2019-04-22T01:52:58.394Z,29.299999
2019-04-22T01:53:57.455Z,27.700001
2019-04-22T01:54:54.374Z,30.700001
2019-04-22T01:55:56.980Z,29
2019-04-22T01:56:52.257Z,29.299999
2019-04-22T01:57:53.154Z,29.9
2019-04-22T01:58:49.221Z,25.9
2019-04-22T01:59:45.338Z,27.9
2019-04-22T02:00:59.071Z,28.299999
2019-04-22T02:01:54.886Z,28.299999
2019-04-22T02:02:57.131Z,28
2019-04-22T02:04:00.721Z,30.1
2019-04-22T02:04:59.282Z,26.6
2019-04-22T02:05:58.653Z,26.5
2019-04-22T02:06:55.515Z,26.6
2019-04-22T02:07:55.929Z,28.6
2019-04-22T02:09:16.950Z,28.799999
2019-04-22T02:09:54.890Z,28.299999
2019-04-22T02:10:54.266Z,33.200001
2019-04-22T02:11:59.926Z,26.200001
2019-04-22T02:12:52.968Z,29.1
2019-04-22T02:13:55.966Z,27.299999
2019-04-22T02:14:57.070Z,26.1
2019-04-22T02:15:58.096Z,26.799999
2019-04-22T02:16:55.439Z,26.1
2019-04-22T02:18:01.059Z,25.5
2019-04-22T02:19:00.657Z,24.700001
2019-04-22T02:19:57.089Z,25
2019-04-22T02:20:54.315Z,26.700001
2019-04-22T02:21:53.947Z,26.299999
2019-04-22T02:23:15.097Z,26.4
2019-04-22T02:23:53.095Z,23.700001
2019-04-22T02:24:58.397Z,24.6
2019-04-22T02:26:00.515Z,27.799999
2019-04-22T02:26:54.038Z,24.6
2019-04-22T02:27:54.333Z,25.4
2019-04-22T02:28:53.518Z,26.200001
2019-04-22T02:29:51.467Z,26.799999
2019-04-22T02:32:19.073Z,29
2019-04-22T02:36:56.009Z,28
2019-04-22T02:38:06.977Z,25.9
2019-04-22T02:40:03.270Z,25.700001
2019-04-22T02:41:15.548Z,25
2019-04-22T02:42:02.240Z,27.700001
2019-04-22T02:43:00.949Z,24
2019-04-22T02:46:21.885Z,26.799999
2019-04-22T02:47:09.652Z,27.200001
2019-04-22T02:48:09.619Z,27.4
2019-04-22T02:49:17.833Z,26.200001
2019-04-22T02:50:01.656Z,23.6
2019-04-22T02:51:59.444Z,23.5
2019-04-22T02:52:59.954Z,23.299999
2019-04-22T02:55:01.192Z,22.700001
2019-04-22T02:57:02.596Z,23.6
2019-04-22T02:57:54.515Z,22.5
2019-04-22T02:59:09.383Z,22.6
2019-04-22T03:00:05.376Z,21.299999
2019-04-22T03:01:04.883Z,22.700001
2019-04-22T03:01:52.996Z,19.1
2019-04-22T03:04:18.060Z,25
2019-04-22T03:05:08.659Z,21.1
2019-04-22T03:06:23.785Z,20.799999
2019-04-22T03:06:45.717Z,23.299999
2019-04-22T03:08:06.072Z,21.700001
2019-04-22T03:09:02.918Z,25.799999
2019-04-22T03:11:12.326Z,21.4
2019-04-22T03:12:07.738Z,20.799999
2019-04-22T03:12:58.148Z,21
2019-04-22T03:14:04.524Z,21.5
2019-04-22T03:14:59.230Z,20
2019-04-22T03:16:07.406Z,20.700001
2019-04-22T03:16:56.913Z,22.6
2019-04-22T03:18:08.571Z,21.4
2019-04-22T03:19:13.557Z,25.200001
2019-04-22T03:20:03.802Z,18.9
2019-04-22T03:21:01.961Z,21
2019-04-22T03:21:59.724Z,22.700001
2019-04-22T03:23:15.838Z,21.9
2019-04-22T03:24:15.363Z,21.9
2019-04-22T03:25:31.657Z,21.9
2019-04-22T03:26:11.171Z,22.700001
2019-04-22T03:27:00.457Z,22.6
2019-04-22T03:28:18.390Z,24.200001
2019-04-22T03:29:10.464Z,25.299999
2019-04-22T03:32:30.643Z,26.5
2019-04-22T03:33:10.514Z,26.299999
2019-04-22T03:36:04.232Z,26.1
2019-04-22T03:37:55.534Z,29.799999
2019-04-22T03:41:13.072Z,29.1
2019-04-22T03:45:08.719Z,28.299999
2019-04-22T03:46:00.616Z,25.9
2019-04-22T03:49:27.982Z,27.700001
2019-04-22T03:51:07.289Z,24.200001
2019-04-22T03:53:08.855Z,25.5
2019-04-22T03:54:09.806Z,24.9
2019-04-22T03:56:01.837Z,21.799999
2019-04-22T03:59:15.971Z,23.299999
2019-04-22T04:00:06.453Z,24.5
2019-04-22T04:01:05.407Z,22.200001
2019-04-22T04:04:58.162Z,22
2019-04-22T04:05:58.728Z,20.1
2019-04-22T04:08:19.472Z,23
2019-04-22T04:09:08.753Z,22.9
2019-04-22T04:10:10.002Z,24
2019-04-22T04:10:57.362Z,24.1
2019-04-22T04:12:03.337Z,21
2019-04-22T04:13:16.655Z,24.200001
2019-04-22T04:14:09.119Z,23.299999
2019-04-22T04:16:55.995Z,22.799999
2019-04-22T04:17:08.508Z,21.9
2019-04-22T04:19:22.899Z,22.700001
2019-04-22T04:20:10.323Z,26.799999
2019-04-22T04:22:07.673Z,24.5
2019-04-22T04:46:35.536Z,20.799999
2019-04-22T04:48:32.085Z,20.5
2019-04-22T04:49:34.037Z,20.9
2019-04-22T04:50:25.012Z,21.700001
2019-04-22T04:53:24.261Z,18.700001
2019-04-22T04:54:30.081Z,22.6
2019-04-22T04:55:33.021Z,22.6
2019-04-22T04:58:33.690Z,21.299999
2019-04-22T04:59:33.004Z,19.200001
2019-04-22T05:01:35.008Z,19.6
2019-04-22T05:02:37.067Z,18.200001
2019-04-22T05:03:38.974Z,19
2019-04-22T05:04:25.238Z,18.9
2019-04-22T05:05:26.225Z,18.799999
2019-04-22T05:06:32.882Z,20.700001
2019-04-22T05:08:37.642Z,17.6
2019-04-22T05:09:32.131Z,20
2019-04-22T05:10:40.942Z,18.700001
2019-04-22T05:11:34.726Z,17.1
2019-04-22T05:12:51.726Z,18.5
2019-04-22T05:13:32.058Z,18.799999
2019-04-22T05:14:23.888Z,19
2019-04-22T05:15:29.209Z,19.1
2019-04-22T05:16:32.191Z,19.6
2019-04-22T05:17:43.054Z,16.799999
2019-04-22T05:18:28.772Z,17.799999
2019-04-22T05:19:25.151Z,21
2019-04-22T05:20:31.770Z,18.6
2019-04-22T05:21:21.339Z,20.5
2019-04-22T05:22:27.803Z,19.9
2019-04-22T05:23:29.837Z,17.299999
2019-04-22T05:25:22.057Z,16.799999
2019-04-22T05:26:27.571Z,14.8
2019-04-22T05:27:27.809Z,17.5
2019-04-22T05:28:23.520Z,16.5
2019-04-22T05:29:26.533Z,15.9
2019-04-22T05:31:31.962Z,14.9
2019-04-22T05:32:24.280Z,14.8
2019-04-22T05:33:27.310Z,15.3
2019-04-22T05:34:27.847Z,17
2019-04-22T05:35:26.067Z,15.5
2019-04-22T05:36:27.903Z,13.5
2019-04-22T05:37:26.875Z,15.3
2019-04-22T05:39:20.864Z,14.8
2019-04-22T05:41:28.556Z,14.9
2019-04-22T05:42:33.961Z,15
2019-04-22T05:43:27.067Z,15.6
2019-04-22T05:44:29.261Z,15.7
2019-04-22T05:45:24.576Z,16.299999
2019-04-22T05:47:25.248Z,15.6
2019-04-22T05:48:24.030Z,15.1
2019-04-22T05:49:23.327Z,18.200001
2019-04-22T05:50:22.708Z,15.7
2019-04-22T05:51:30.925Z,18.200001
2019-04-22T05:52:24.669Z,14.6
2019-04-22T05:53:25.242Z,15.9
2019-04-22T05:54:27.169Z,16.799999
2019-04-22T05:55:29.903Z,15.2
2019-04-22T05:56:32.358Z,13.3
2019-04-22T05:57:23.182Z,15.3
2019-04-22T05:58:29.148Z,15.5
2019-04-22T05:59:30.606Z,18.299999
2019-04-22T06:01:37.782Z,15.5
2019-04-22T06:02:39.119Z,16.6
2019-04-22T06:03:28.203Z,13.8
2019-04-22T06:04:44.757Z,12.7
2019-04-22T06:05:41.498Z,15.2
2019-04-22T06:06:22.297Z,15
2019-04-22T06:07:26.073Z,16
2019-04-22T06:08:23.103Z,14.5
2019-04-22T06:09:28.252Z,14.6
2019-04-22T06:10:38.818Z,13.7
2019-04-22T06:12:20.698Z,12.7
2019-04-22T06:13:23.160Z,11.9
2019-04-22T06:14:24.451Z,17.6
2019-04-22T06:15:28.642Z,13.1
2019-04-22T06:16:30.497Z,13.7
2019-04-22T06:17:29.891Z,11.2
2019-04-22T06:18:26.903Z,12.8
2019-04-22T06:19:24.269Z,14.4
2019-04-22T06:20:32.022Z,12.2
2019-04-22T06:21:36.889Z,11.4
2019-04-22T06:22:36.913Z,11.1
2019-04-22T06:23:34.226Z,10.3
2019-04-22T06:24:27.111Z,10.1
2019-04-22T06:25:36.509Z,13.6
2019-04-22T06:26:37.366Z,10.8
2019-04-22T06:27:32.597Z,12.4
2019-04-22T06:28:34.643Z,12.5
2019-04-22T06:29:41.035Z,10.4
2019-04-22T06:30:28.214Z,10.3
2019-04-22T06:31:42.064Z,10.9
2019-04-22T06:33:47.599Z,10.6
2019-04-22T06:36:35.743Z,12.7
2019-04-22T06:37:43.107Z,10.6
2019-04-22T06:39:33.867Z,9.5
2019-04-22T06:40:31.350Z,10.8
2019-04-22T06:41:32.871Z,9.4
2019-04-22T06:42:34.643Z,10
2019-04-22T06:43:34.774Z,10.3
2019-04-22T06:44:51.405Z,11.6
2019-04-22T06:45:28.456Z,10.9
2019-04-22T06:46:33.452Z,10.6
2019-04-22T06:47:43.681Z,9.2
2019-04-22T06:48:29.361Z,10.4
2019-04-22T06:49:34.813Z,9.6
2019-04-22T06:50:35.634Z,10.1
2019-04-22T06:51:32.081Z,12.4
2019-04-22T06:52:27.795Z,9.9
2019-04-22T06:53:34.225Z,9.9
2019-04-22T06:54:32.388Z,9.8
2019-04-22T06:55:35.291Z,8.1
2019-04-22T06:56:26.994Z,12.2
2019-04-22T06:57:30.099Z,9.8
2019-04-22T06:58:34.448Z,8.4
2019-04-22T06:59:31.001Z,10.9
2019-04-22T07:00:36.457Z,8.4
2019-04-22T07:01:35.344Z,11.3
2019-04-22T07:02:44.939Z,10.1
2019-04-22T07:03:41.327Z,10.9
2019-04-22T07:04:33.462Z,10.7
2019-04-22T07:05:32.409Z,9.9
2019-04-22T07:07:30.973Z,8.5
2019-04-22T07:09:05.692Z,8.4
2019-04-22T07:11:29.437Z,7.9
2019-04-22T07:12:34.263Z,9.5
2019-04-22T07:13:33.952Z,10
2019-04-22T07:14:34.960Z,9.9
2019-04-22T07:16:37.610Z,7.8
2019-04-22T07:17:54.836Z,9.9
2019-04-22T07:18:35.400Z,9.1
2019-04-22T07:20:36.143Z,7
2019-04-22T07:21:36.634Z,8.1
2019-04-22T07:22:33.324Z,9
2019-04-22T07:23:38.465Z,8.5
2019-04-22T07:25:34.416Z,7.9
2019-04-22T07:26:36.044Z,8.5
2019-04-22T07:27:34.050Z,8.7
2019-04-22T07:28:28.809Z,9.2
2019-04-22T07:29:38.778Z,8.8
2019-04-22T07:30:52.661Z,10.1
2019-04-22T07:31:33.908Z,8.7
2019-04-22T07:32:57.709Z,8
2019-04-22T07:33:37.333Z,8.9
2019-04-22T07:34:38.770Z,9.8
2019-04-22T07:35:45.783Z,7.2
2019-04-22T07:37:46.770Z,10.3
2019-04-22T07:38:29.443Z,12.2
2019-04-22T07:39:34.694Z,8.1
2019-04-22T07:40:38.621Z,9.4
2019-04-22T07:41:37.081Z,7.7
2019-04-22T07:42:36.284Z,8.1
2019-04-22T07:43:51.298Z,8.2
2019-04-22T07:44:38.294Z,10.2
2019-04-22T07:45:42.126Z,10.8
2019-04-22T07:46:41.288Z,8.7
2019-04-22T07:47:37.280Z,8.5
2019-04-22T07:48:51.467Z,7.9
2019-04-22T07:49:58.845Z,8.8
2019-04-22T07:50:48.821Z,9.6
2019-04-22T07:51:35.931Z,7.1
2019-04-22T07:52:38.172Z,9.1
2019-04-22T07:53:33.292Z,9.4
2019-04-22T07:54:41.236Z,7.9
2019-04-22T07:55:37.917Z,10.1
2019-04-22T07:56:36.172Z,9.6
2019-04-22T07:57:36.319Z,9.4
2019-04-22T07:58:41.719Z,11.6
2019-04-22T07:59:40.181Z,8.3
2019-04-22T08:00:38.414Z,8.7
2019-04-22T08:01:35.172Z,8.7
2019-04-22T08:02:43.497Z,9.3
2019-04-22T08:03:51.112Z,9.1
2019-04-22T08:06:45.845Z,7.5
2019-04-22T08:07:41.956Z,8.5
2019-04-22T08:08:35.386Z,8.5
2019-04-22T08:09:44.253Z,8.2
2019-04-22T08:10:42.920Z,10.7
2019-04-22T08:11:52.155Z,46.900002
2019-04-22T08:12:45.473Z,15.3
2019-04-22T08:13:40.421Z,10.8
2019-04-22T08:14:40.143Z,10.3
2019-04-22T08:16:42.977Z,10
2019-04-22T08:17:54.584Z,10.6
2019-04-22T08:18:38.903Z,15.1
2019-04-22T08:19:41.533Z,12.2
2019-04-22T08:20:40.220Z,9.4
2019-04-22T08:21:45.329Z,7.6
2019-04-22T08:22:42.512Z,6.6
2019-04-22T08:23:41.491Z,8
2019-04-22T08:24:46.994Z,8.6
2019-04-22T08:25:42.325Z,7.6
2019-04-22T08:26:45.019Z,7.2
2019-04-22T08:27:42.616Z,7.7
2019-04-22T08:28:45.352Z,6
2019-04-22T08:29:51.831Z,8.1
2019-04-22T08:30:47.287Z,6.3
2019-04-22T08:31:48.411Z,7.3
2019-04-22T08:33:00.492Z,9.1
2019-04-22T08:33:39.577Z,8
2019-04-22T08:34:41.719Z,11.4
2019-04-22T08:35:59.523Z,6
2019-04-22T08:36:53.120Z,6.8
2019-04-22T08:38:52.350Z,7.3
2019-04-22T08:39:40.083Z,6.8
2019-04-22T08:40:46.938Z,5.8
2019-04-22T08:42:49.303Z,7.4
2019-04-22T08:44:00.516Z,6.7
2019-04-22T08:45:49.545Z,7.8
2019-04-22T08:47:10.636Z,7.4
2019-04-22T08:47:41.163Z,6.3
2019-04-22T08:48:43.754Z,7.8
2019-04-22T08:49:50.031Z,6.5
2019-04-22T08:50:44.057Z,11.1
2019-04-22T08:51:41.885Z,7.3
2019-04-22T08:52:47.958Z,8.3
2019-04-22T08:53:47.904Z,7.2
2019-04-22T08:54:43.443Z,7.4
2019-04-22T08:55:46.178Z,7.6
2019-04-22T08:58:03.056Z,7.7
2019-04-22T08:58:49.956Z,8.1
2019-04-22T08:59:48.212Z,7.5
2019-04-22T09:00:49.682Z,6.3
2019-04-22T09:01:41.777Z,8.8
2019-04-22T09:02:46.501Z,7
2019-04-22T09:03:45.398Z,6.1
2019-04-22T09:04:41.906Z,8.4
2019-04-22T09:07:01.017Z,7.2
2019-04-22T09:07:46.055Z,7.2
2019-04-22T09:08:48.611Z,7.4
2019-04-22T09:09:55.163Z,6.5
2019-04-22T09:10:48.133Z,7
2019-04-22T09:11:46.449Z,7.1
2019-04-22T09:12:56.644Z,8.5
2019-04-22T09:13:49.696Z,8.1
2019-04-22T09:14:45.173Z,7.1
2019-04-22T09:16:02.011Z,7.1
2019-04-22T09:17:03.612Z,8.6
2019-04-22T09:17:55.535Z,6.9
2019-04-22T09:18:48.031Z,6.5
2019-04-22T09:19:47.236Z,7.7
2019-04-22T09:20:46.848Z,7.7
2019-04-22T09:22:04.308Z,6.9
2019-04-22T09:22:46.583Z,6.8
2019-04-22T09:23:52.111Z,7.7
2019-04-22T09:24:46.710Z,7.2
2019-04-22T09:25:48.330Z,6.8
2019-04-22T09:26:47.286Z,5.4
2019-04-22T09:27:49.385Z,6.6
2019-04-22T09:28:50.228Z,7.5
2019-04-22T09:31:53.158Z,7.3
2019-04-22T09:32:53.987Z,6.3
2019-04-22T09:40:45.573Z,7.6
2019-04-22T09:41:46.070Z,5.7
2019-04-22T09:44:47.012Z,8.9
2019-04-22T09:45:47.570Z,5.6
2019-04-22T09:46:46.632Z,5.5
2019-04-22T09:47:48.541Z,5
2019-04-22T09:48:49.995Z,6.7
2019-04-22T09:49:49.117Z,6.5
2019-04-22T09:50:47.577Z,6.8
2019-04-22T09:51:44.696Z,7.3
2019-04-22T09:52:47.243Z,8.3
2019-04-22T09:53:52.530Z,5.8
2019-04-22T09:54:52.664Z,6.1
2019-04-22T09:55:49.647Z,6.2
2019-04-22T09:56:48.886Z,6.4
2019-04-22T09:57:44.785Z,5.9
2019-04-22T09:58:49.045Z,9.8
2019-04-22T09:59:50.521Z,6.8
2019-04-22T10:00:51.849Z,6.1
2019-04-22T10:01:56.700Z,7.7
2019-04-22T10:02:55.252Z,7.3
2019-04-22T10:03:44.156Z,7.3
2019-04-22T10:04:53.612Z,5.8
2019-04-22T10:05:49.656Z,10.8
2019-04-22T10:06:40.183Z,7.1
2019-04-22T10:07:52.182Z,6.7
2019-04-22T10:09:01.579Z,7.7
2019-04-22T10:09:59.053Z,8.4
2019-04-22T10:10:48.539Z,5.3
2019-04-22T10:11:50.476Z,8.1
2019-04-22T10:13:02.525Z,5
2019-04-22T10:13:53.406Z,8.2
2019-04-22T10:14:48.887Z,7.5
2019-04-22T10:16:47.756Z,7.7
2019-04-22T10:17:49.288Z,4.8
2019-04-22T10:18:51.844Z,6.8
2019-04-22T10:19:46.223Z,7.9
2019-04-22T10:20:53.704Z,6.2
2019-04-22T10:21:49.796Z,7.8
2019-04-22T10:22:51.463Z,5.8
2019-04-22T10:23:50.249Z,7.4
2019-04-22T10:24:51.892Z,5.9
2019-04-22T10:25:52.144Z,5.4
2019-04-22T10:26:50.217Z,5.7
2019-04-22T10:27:55.035Z,7.6
2019-04-22T10:28:52.239Z,6.5
2019-04-22T10:29:53.499Z,7.2
2019-04-22T10:31:49.263Z,9.8
2019-04-22T10:32:47.169Z,5.5
2019-04-22T10:34:34.473Z,10.8
2019-04-22T10:35:28.277Z,6.6
2019-04-22T10:36:27.620Z,6
2019-04-22T10:37:26.109Z,5.6
2019-04-22T10:38:26.455Z,7.5
2019-04-22T10:39:36.524Z,6.6
2019-04-22T10:40:27.878Z,6.1
2019-04-22T10:41:26.558Z,12.2
2019-04-22T10:42:26.837Z,5.9
2019-04-22T10:43:27.499Z,7.2
2019-04-22T10:44:27.091Z,5.5
2019-04-22T10:45:26.051Z,6
2019-04-22T10:46:26.339Z,6
2019-04-22T10:47:25.842Z,4.7
2019-04-22T10:48:26.180Z,6
2019-04-22T10:49:26.542Z,7.5
2019-04-22T10:50:25.920Z,7.1
2019-04-22T10:51:26.534Z,8.3
2019-04-22T10:52:27.496Z,6.2
2019-04-22T10:53:27.131Z,5.3
2019-04-22T10:54:27.285Z,6.9
2019-04-22T10:55:27.483Z,6.6
2019-04-22T10:56:27.168Z,5.1
2019-04-22T10:57:27.635Z,6.5
2019-04-22T10:59:06.993Z,6.9
2019-04-22T10:59:26.879Z,6.6
2019-04-22T11:00:27.284Z,5.5
2019-04-22T11:01:27.536Z,7.2
2019-04-22T11:02:27.711Z,5.8
2019-04-22T11:03:28.249Z,6
2019-04-22T11:04:28.044Z,5.7
2019-04-22T11:05:26.469Z,7.3
2019-04-22T11:06:27.550Z,8.3
2019-04-22T11:07:35.716Z,6.9
2019-04-22T11:08:33.802Z,7.5
2019-04-22T11:09:28.970Z,8.5
2019-04-22T11:10:42.426Z,10.1
2019-04-22T11:11:38.331Z,9.9
2019-04-22T11:12:30.734Z,8.5
2019-04-22T11:13:28.369Z,6.7
2019-04-22T11:14:28.493Z,8.6
2019-04-22T11:15:28.726Z,9
2019-04-22T11:16:27.831Z,7.1
2019-04-22T11:17:27.563Z,5.4
2019-04-22T11:18:27.627Z,7.6
2019-04-22T11:19:27.873Z,5.6
2019-04-22T11:20:27.709Z,6.6
2019-04-22T11:21:27.731Z,5.7
2019-04-22T11:22:32.045Z,6.6
2019-04-22T11:23:28.961Z,5.6
2019-04-22T11:24:28.460Z,5.6
2019-04-22T11:25:27.872Z,6.9
2019-04-22T11:26:28.292Z,7.1
2019-04-22T11:27:28.656Z,8.4
2019-04-22T11:28:28.257Z,6.5
2019-04-22T11:29:29.879Z,6.8
2019-04-22T11:30:30.223Z,8.3
2019-04-22T11:31:30.348Z,5.8
2019-04-22T11:32:30.601Z,6.6
2019-04-22T11:33:30.317Z,9.8
2019-04-22T11:34:29.200Z,7.2
2019-04-22T11:35:28.164Z,5.9
2019-04-22T11:36:30.506Z,6.8
2019-04-22T11:37:30.328Z,5.9
2019-04-22T11:38:29.244Z,5.8
2019-04-22T11:39:31.068Z,6.7
2019-04-22T11:40:34.445Z,7
2019-04-22T11:41:29.534Z,9.8
2019-04-22T11:42:29.998Z,6.8
2019-04-22T11:43:30.444Z,7.4
2019-04-22T11:44:30.872Z,7.8
2019-04-22T11:45:31.105Z,7.5
2019-04-22T11:46:29.811Z,7.9
2019-04-22T11:47:29.650Z,7.6
2019-04-22T11:48:29.182Z,8.1
2019-04-22T11:49:29.931Z,7.9
2019-04-22T11:50:30.206Z,8.4
2019-04-22T11:51:29.725Z,8.2
2019-04-22T11:52:30.924Z,8.9
2019-04-22T11:53:30.978Z,9
2019-04-22T11:54:30.565Z,9.1
2019-04-22T11:55:29.202Z,9.8
2019-04-22T11:56:29.446Z,9.2
2019-04-22T11:57:29.238Z,9.2
2019-04-22T11:58:30.646Z,9.7
2019-04-22T11:59:30.901Z,9.3
2019-04-22T12:00:30.621Z,9.9
2019-04-22T12:01:30.780Z,9.6
2019-04-22T12:02:31.061Z,10.3
2019-04-22T12:03:31.611Z,9.6
2019-04-22T12:04:31.945Z,9.3
2019-04-22T12:05:30.763Z,9.4
2019-04-22T12:06:31.651Z,9.7
2019-04-22T12:07:33.436Z,9.7
2019-04-22T12:08:31.146Z,9.8
2019-04-22T12:09:29.951Z,9.9
2019-04-22T12:10:37.668Z,10.4
2019-04-22T12:11:32.365Z,9.3
2019-04-22T12:12:31.991Z,9.3
2019-04-22T12:13:31.114Z,10.1
2019-04-22T12:14:31.875Z,9.8
2019-04-22T12:15:31.119Z,9.5
2019-04-22T12:16:31.598Z,8.8
2019-04-22T12:17:31.870Z,9.2
2019-04-22T12:18:31.385Z,8.6
2019-04-22T12:19:31.258Z,8.6
2019-04-22T12:20:30.521Z,8.7
2019-04-22T12:21:31.076Z,9
2019-04-22T12:22:31.244Z,8.9
2019-04-22T12:23:30.722Z,9
2019-04-22T12:24:31.976Z,8.8
2019-04-22T12:25:42.079Z,8.6
2019-04-22T12:26:32.508Z,8.5
2019-04-22T12:27:30.900Z,8.7
2019-04-22T12:28:31.138Z,8.5
2019-04-22T12:29:31.093Z,8
2019-04-22T12:30:31.047Z,8.4
2019-04-22T12:31:31.467Z,8.2
2019-04-22T12:32:31.606Z,8.2
2019-04-22T12:33:31.584Z,8.8
2019-04-22T12:34:31.160Z,7.6
2019-04-22T12:35:32.529Z,8
2019-04-22T12:36:32.755Z,8.3
2019-04-22T12:37:38.129Z,7.7
2019-04-22T12:38:33.424Z,7.5
2019-04-22T12:39:33.602Z,7.8
2019-04-22T12:40:40.754Z,7.9
2019-04-22T12:41:33.761Z,7.3
2019-04-22T12:42:33.224Z,7.5
2019-04-22T12:43:31.804Z,7.8
2019-04-22T12:44:32.721Z,7.8
2019-04-22T12:45:34.175Z,7.8
2019-04-22T12:46:34.161Z,7.8
2019-04-22T12:47:33.684Z,7.9
2019-04-22T12:48:32.858Z,8
2019-04-22T12:49:33.161Z,7.5
2019-04-22T12:50:37.140Z,7
2019-04-22T12:51:33.343Z,6.3
2019-04-22T12:52:38.011Z,6.9
2019-04-22T12:53:33.906Z,8.6
2019-04-22T12:54:33.036Z,7.2
2019-04-22T12:55:34.180Z,8
2019-04-22T12:56:33.649Z,6.8
2019-04-22T12:57:32.714Z,8.3
2019-04-22T12:58:33.846Z,6
2019-04-22T12:59:35.241Z,6.1
2019-04-22T13:00:34.295Z,5.7
2019-04-22T13:01:33.127Z,8
2019-04-22T13:02:33.129Z,8.4
2019-04-22T13:03:34.106Z,6.7
2019-04-22T13:04:34.242Z,6.2
2019-04-22T13:05:33.375Z,5.8
2019-04-22T13:06:33.047Z,5.9
2019-04-22T13:07:33.611Z,5.8
2019-04-22T13:08:33.912Z,5.6
2019-04-22T13:09:33.486Z,5
2019-04-22T13:10:41.435Z,6.4
2019-04-22T13:11:36.382Z,6.6
2019-04-22T13:12:34.954Z,6.9
2019-04-22T13:13:34.567Z,6.6
2019-04-22T13:14:34.880Z,7.4
2019-04-22T13:15:33.156Z,4.9
2019-04-22T13:16:33.222Z,5.5
2019-04-22T13:17:33.255Z,5.8
2019-04-22T13:18:39.890Z,5.2
2019-04-22T13:19:35.978Z,5
2019-04-22T13:20:34.555Z,5.1
2019-04-22T13:21:33.476Z,5
2019-04-22T13:22:34.904Z,4.9
2019-04-22T13:23:34.489Z,6.3
2019-04-22T13:24:34.140Z,4.7
2019-04-22T13:25:34.700Z,6.2
2019-04-22T13:26:35.917Z,4.9
2019-04-22T13:27:35.170Z,8.5
2019-04-22T13:28:34.633Z,5
2019-04-22T13:29:34.933Z,4.5
2019-04-22T13:30:36.745Z,4.7
2019-04-22T13:31:35.235Z,4.8
2019-04-22T13:32:34.716Z,6.7
2019-04-22T13:33:34.668Z,5
2019-04-22T13:34:40.160Z,6.5
2019-04-22T13:35:36.183Z,6.9
2019-04-22T13:36:34.700Z,5
2019-04-22T13:37:34.985Z,4.5
2019-04-22T13:38:35.335Z,4.8
2019-04-22T13:39:34.886Z,6.7
2019-04-22T13:40:34.904Z,4.3
2019-04-22T13:41:42.848Z,4.4
2019-04-22T13:42:37.076Z,4.3
2019-04-22T13:43:36.618Z,4.4
2019-04-22T13:44:35.554Z,4.3
2019-04-22T13:45:36.080Z,4
2019-04-22T13:46:36.020Z,3.9
2019-04-22T13:47:54.495Z,5.7
2019-04-22T13:48:58.780Z,4.2
2019-04-22T13:50:05.362Z,4.9
2019-04-22T13:51:03.204Z,4.3
2019-04-22T13:52:11.387Z,3.7
2019-04-22T13:54:59.480Z,4.7
2019-04-22T13:56:51.689Z,3.5
2019-04-22T13:57:52.206Z,3.3
2019-04-22T13:58:52.319Z,5.1
2019-04-22T13:59:42.756Z,3.8
2019-04-22T14:00:38.438Z,3.9
2019-04-22T14:01:38.585Z,3.3
2019-04-22T14:02:37.399Z,4.3
2019-04-22T14:03:37.815Z,6
2019-04-22T14:04:38.462Z,7
2019-04-22T14:05:37.451Z,3.4
2019-04-22T14:06:36.651Z,4.2
2019-04-22T14:07:36.989Z,6.3
2019-04-22T14:08:37.536Z,3.6
2019-04-22T14:09:38.094Z,3.8
2019-04-22T14:10:36.750Z,4
2019-04-22T14:11:46.047Z,4.8
2019-04-22T14:12:39.098Z,2.9
2019-04-22T14:13:37.973Z,2.8
2019-04-22T14:14:39.251Z,3.3
2019-04-22T14:15:38.125Z,3.6
2019-04-22T14:16:37.191Z,3.4
2019-04-22T14:17:37.174Z,3.6
2019-04-22T14:18:37.256Z,3.7
2019-04-22T14:19:37.300Z,2.9
2019-04-22T14:20:38.668Z,3.3
2019-04-22T14:21:38.855Z,6
2019-04-22T14:22:38.735Z,3.3
2019-04-22T14:23:38.677Z,2.9
2019-04-22T14:24:38.617Z,3
2019-04-22T14:25:38.754Z,3.3
2019-04-22T14:26:48.623Z,3.5
2019-04-22T14:27:48.485Z,3.4
2019-04-22T14:28:39.506Z,3
2019-04-22T14:29:37.813Z,2.5
2019-04-22T14:30:38.797Z,2.7
2019-04-22T14:31:40.362Z,3.3
2019-04-22T14:32:39.884Z,2.6
2019-04-22T14:33:38.397Z,2.6
2019-04-22T14:34:38.455Z,4.9
2019-04-22T14:35:39.761Z,3.5
2019-04-22T14:36:39.354Z,2.6
2019-04-22T14:37:38.538Z,4.1
2019-04-22T14:38:39.821Z,3.1
2019-04-22T14:39:39.883Z,2.7
2019-04-22T14:40:40.472Z,3.7
2019-04-22T14:41:52.153Z,2.7
2019-04-22T14:43:00.417Z,2.9
2019-04-22T14:44:20.510Z,2.9
2019-04-22T14:46:06.791Z,2.6
2019-04-22T14:47:07.837Z,5.5
2019-04-22T14:48:05.682Z,3
2019-04-22T14:49:02.490Z,3
2019-04-22T14:49:58.816Z,2.7
2019-04-22T14:51:00.251Z,3.9
2019-04-22T14:52:03.348Z,2.6
2019-04-22T14:53:03.558Z,2.6
2019-04-22T14:53:55.020Z,3
2019-04-22T14:54:51.388Z,5.3
2019-04-22T14:55:42.231Z,2.8
2019-04-22T14:56:42.199Z,5.2
2019-04-22T14:57:42.234Z,3.5
2019-04-22T14:58:41.045Z,4
2019-04-22T14:59:40.070Z,2.8
2019-04-22T15:00:40.101Z,3.1
2019-04-22T15:01:41.556Z,3.1
2019-04-22T15:02:41.701Z,2.7
2019-04-22T15:03:43.976Z,2.9
2019-04-22T15:04:41.558Z,3.3
2019-04-22T15:05:41.965Z,3.2
2019-04-22T15:06:43.013Z,5.3
2019-04-22T15:07:41.312Z,3.2
2019-04-22T15:08:40.307Z,4.3
2019-04-22T15:09:41.802Z,2.9
2019-04-22T15:10:42.143Z,4.6